createdAt,value
2018-12-26T00:01:21.311Z,0.40
2018-12-26T00:04:30.905Z,0.50
2018-12-26T00:07:19.295Z,0.50
2018-12-26T00:10:07.333Z,0.40
2018-12-26T00:12:55.471Z,0.30
2018-12-26T00:16:04.643Z,0.40
2018-12-26T00:18:52.672Z,0.40
2018-12-26T00:22:01.331Z,0.40
2018-12-26T00:24:49.216Z,0.40
2018-12-26T00:27:37.265Z,0.30
2018-12-26T00:30:25.293Z,0.00
2018-12-26T00:33:13.284Z,0.00
2018-12-26T00:36:02.007Z,0.10
2018-12-26T00:38:51.484Z,0.30
2018-12-26T00:41:58.719Z,0.30
2018-12-26T00:44:46.589Z,0.30
2018-12-26T00:50:46.031Z,0.10
2018-12-26T00:56:41.121Z,0.00
2018-12-26T00:59:28.976Z,0.10
2018-12-26T01:02:16.871Z,0.20
2018-12-26T01:04:47.990Z,0.00
2018-12-26T01:07:56.600Z,-0.10
2018-12-26T01:10:44.465Z,0.00
2018-12-26T01:13:33.419Z,0.10
2018-12-26T01:16:21.504Z,0.00
2018-12-26T01:19:11.021Z,0.00
2018-12-26T01:25:06.691Z,0.00
2018-12-26T01:27:39.459Z,0.00
2018-12-26T01:30:46.662Z,-0.10
2018-12-26T01:33:34.562Z,-0.10
2018-12-26T01:36:22.433Z,-0.20
2018-12-26T01:39:06.293Z,-0.20
2018-12-26T01:41:47.094Z,-0.30
2018-12-26T01:44:27.754Z,-0.30
2018-12-26T01:47:10.272Z,-0.30
2018-12-26T01:49:51.128Z,-0.30
2018-12-26T01:52:32.878Z,-0.20
2018-12-26T01:55:13.651Z,-0.20
2018-12-26T01:57:57.688Z,-0.30
2018-12-26T02:00:38.198Z,-0.20
2018-12-26T02:03:19.520Z,-0.20
2018-12-26T02:06:00.739Z,-0.20
2018-12-26T02:08:42.151Z,-0.20
2018-12-26T02:11:23.043Z,-0.20
2018-12-26T02:13:51.840Z,-0.20
2018-12-26T02:17:00.420Z,-0.30
2018-12-26T02:19:48.317Z,-0.30
2018-12-26T02:22:36.172Z,-0.40
2018-12-26T02:25:24.172Z,-0.30
2018-12-26T02:28:33.036Z,-0.40
2018-12-26T02:31:20.955Z,-0.50
2018-12-26T02:34:08.823Z,-0.50
2018-12-26T02:37:16.040Z,-0.50
2018-12-26T02:40:02.821Z,-0.50
2018-12-26T02:42:43.787Z,-0.50
2018-12-26T02:48:04.841Z,-0.60
2018-12-26T02:50:54.406Z,-0.50
2018-12-26T02:53:42.410Z,-0.40
2018-12-26T02:56:30.382Z,-0.50
2018-12-26T02:59:18.268Z,-0.50
2018-12-26T03:02:25.498Z,-0.60
2018-12-26T03:05:13.433Z,-0.60
2018-12-26T03:08:01.592Z,-0.60
2018-12-26T03:11:10.427Z,-0.60
2018-12-26T03:13:58.487Z,-0.70
2018-12-26T03:16:49.484Z,-0.70
2018-12-26T03:19:37.406Z,-0.60
2018-12-26T03:22:25.304Z,-0.50
2018-12-26T03:25:13.620Z,-0.50
2018-12-26T03:28:22.206Z,-0.60
2018-12-26T03:31:10.100Z,-0.60
2018-12-26T03:34:01.370Z,-0.60
2018-12-26T03:36:51.424Z,-0.60
2018-12-26T03:39:39.307Z,-0.80
2018-12-26T03:42:47.935Z,-0.80
2018-12-26T03:45:29.137Z,-0.70
2018-12-26T03:48:09.854Z,-0.90
2018-12-26T03:50:59.319Z,-1.00
2018-12-26T03:53:47.240Z,-0.90
2018-12-26T03:56:37.008Z,-0.90
2018-12-26T03:59:24.875Z,-0.80
2018-12-26T04:02:12.780Z,-0.80
2018-12-26T04:05:01.060Z,-0.80
2018-12-26T04:08:08.391Z,-0.80
2018-12-26T04:10:56.251Z,-0.80
2018-12-26T04:13:44.730Z,-0.90
2018-12-26T04:16:53.352Z,-0.90
2018-12-26T04:19:41.297Z,-0.90
2018-12-26T04:22:29.253Z,-0.80
2018-12-26T04:25:38.490Z,-0.80
2018-12-26T04:28:27.664Z,-0.90
2018-12-26T04:31:15.584Z,-0.80
2018-12-26T04:34:03.606Z,-0.80
2018-12-26T04:36:51.548Z,-0.90
2018-12-26T04:39:58.771Z,-0.90
2018-12-26T04:42:43.997Z,-0.90
2018-12-26T04:45:24.817Z,-0.90
2018-12-26T04:48:11.671Z,-0.80
2018-12-26T04:50:56.525Z,-0.80
2018-12-26T04:53:37.403Z,-0.80
2018-12-26T04:56:21.054Z,-0.90
2018-12-26T04:59:01.396Z,-0.90
2018-12-26T05:01:45.066Z,-0.80
2018-12-26T05:04:26.260Z,-0.90
2018-12-26T05:07:10.341Z,-0.80
2018-12-26T05:09:52.485Z,-0.80
2018-12-26T05:12:33.289Z,-0.90
2018-12-26T05:15:13.709Z,-0.90
2018-12-26T05:17:56.111Z,-0.90
2018-12-26T05:20:36.821Z,-0.90
2018-12-26T05:23:19.407Z,-0.90
2018-12-26T05:25:58.344Z,-0.80
2018-12-26T05:28:46.244Z,-0.90
2018-12-26T05:31:36.461Z,-1.00
2018-12-26T05:34:45.697Z,-1.00
2018-12-26T05:37:33.902Z,-1.20
2018-12-26T05:40:21.796Z,-1.10
2018-12-26T05:42:50.433Z,-1.00
2018-12-26T05:45:39.073Z,-1.00
2018-12-26T05:48:46.247Z,-0.90
2018-12-26T05:51:36.083Z,-1.00
2018-12-26T05:54:25.845Z,-1.00
2018-12-26T05:57:15.226Z,-1.00
2018-12-26T06:00:04.663Z,-1.00
2018-12-26T06:03:13.402Z,-1.00
2018-12-26T06:06:01.376Z,-1.00
2018-12-26T06:08:49.256Z,-0.90
2018-12-26T06:11:39.417Z,-0.90
2018-12-26T06:14:28.853Z,-0.90
2018-12-26T06:17:17.145Z,-0.90
2018-12-26T06:20:05.190Z,-0.80
2018-12-26T06:22:57.341Z,-0.90
2018-12-26T06:25:47.913Z,-1.00
2018-12-26T06:28:17.081Z,-1.00
2018-12-26T06:31:05.751Z,-1.00
2018-12-26T06:34:15.401Z,-1.10
2018-12-26T06:37:03.287Z,-1.10
2018-12-26T06:39:52.753Z,-1.10
2018-12-26T06:42:42.167Z,-1.10
2018-12-26T06:45:28.979Z,-1.20
2018-12-26T06:48:10.152Z,-1.10
2018-12-26T06:50:52.921Z,-1.00
2018-12-26T06:53:34.018Z,-1.00
2018-12-26T06:56:15.749Z,-1.00
2018-12-26T06:58:56.213Z,-1.00
2018-12-26T07:01:25.045Z,-1.00
2018-12-26T07:04:13.813Z,-1.00
2018-12-26T07:07:21.026Z,-1.00
2018-12-26T07:10:08.935Z,-1.10
2018-12-26T07:12:57.726Z,-1.00
2018-12-26T07:16:06.348Z,-1.00
2018-12-26T07:18:54.219Z,-1.00
2018-12-26T07:21:44.091Z,-1.00
2018-12-26T07:24:31.990Z,-1.00
2018-12-26T07:27:20.169Z,-1.10
2018-12-26T07:30:28.824Z,-1.20
2018-12-26T07:33:16.706Z,-1.10
2018-12-26T07:36:04.641Z,-1.10
2018-12-26T07:39:11.863Z,-1.10
2018-12-26T07:41:59.745Z,-1.10
2018-12-26T07:44:42.051Z,-1.10
2018-12-26T07:47:23.391Z,-1.00
2018-12-26T07:50:09.637Z,-1.00
2018-12-26T07:52:50.677Z,-1.00
2018-12-26T07:55:34.768Z,-0.90
2018-12-26T07:58:17.751Z,-0.90
2018-12-26T08:00:57.645Z,-0.70
2018-12-26T08:03:38.619Z,-0.70
2018-12-26T08:06:07.235Z,-0.70
2018-12-26T08:09:16.508Z,-0.70
2018-12-26T08:12:04.425Z,-0.70
2018-12-26T08:14:35.307Z,-0.60
2018-12-26T08:17:43.000Z,-0.60
2018-12-26T08:20:30.884Z,-0.50
2018-12-26T08:23:16.789Z,-0.50
2018-12-26T08:25:57.991Z,-0.50
2018-12-26T08:28:46.547Z,-0.60
2018-12-26T08:31:36.922Z,-0.50
2018-12-26T08:34:26.582Z,-0.40
2018-12-26T08:37:14.558Z,-0.30
2018-12-26T08:40:02.529Z,-0.30
2018-12-26T08:42:50.490Z,-0.30
2018-12-26T08:45:34.587Z,-0.20
2018-12-26T08:48:13.957Z,-0.10
2018-12-26T08:51:21.173Z,0.00
2018-12-26T08:54:09.155Z,0.10
2018-12-26T08:56:57.055Z,0.10
2018-12-26T09:00:06.196Z,0.10
2018-12-26T09:02:54.139Z,0.10
2018-12-26T09:05:41.984Z,0.20
2018-12-26T09:08:29.936Z,0.30
2018-12-26T09:11:37.159Z,0.40
2018-12-26T09:14:25.169Z,0.40
2018-12-26T09:17:13.356Z,0.50
2018-12-26T09:20:20.543Z,0.70
2018-12-26T09:23:09.475Z,0.80
2018-12-26T09:26:19.018Z,0.80
2018-12-26T09:29:06.908Z,0.80
2018-12-26T09:31:56.327Z,0.90
2018-12-26T09:34:44.206Z,0.90
2018-12-26T09:37:32.156Z,0.90
2018-12-26T09:40:20.083Z,0.90
2018-12-26T09:43:27.138Z,0.80
2018-12-26T09:46:15.236Z,0.70
2018-12-26T09:49:03.416Z,0.70
2018-12-26T09:52:10.628Z,0.90
2018-12-26T09:54:59.375Z,1.00
2018-12-26T09:57:47.292Z,0.90
2018-12-26T10:00:36.450Z,1.00
2018-12-26T10:03:43.760Z,1.10
2018-12-26T10:06:52.534Z,0.90
2018-12-26T10:09:34.778Z,0.90
2018-12-26T10:12:15.501Z,0.90
2018-12-26T10:15:27.949Z,0.90
2018-12-26T10:18:36.765Z,1.00
2018-12-26T10:21:24.756Z,1.00
2018-12-26T10:24:05.484Z,1.10
2018-12-26T10:29:35.407Z,1.10
2018-12-26T10:32:16.487Z,1.10
2018-12-26T10:37:52.461Z,1.20
2018-12-26T10:41:02.137Z,1.30
2018-12-26T10:43:50.025Z,1.30
2018-12-26T10:47:04.999Z,1.30
2018-12-26T10:49:53.993Z,1.40
2018-12-26T10:52:43.665Z,1.50
2018-12-26T10:55:52.389Z,1.60
2018-12-26T10:58:41.997Z,1.60
2018-12-26T11:01:11.781Z,1.70
2018-12-26T11:04:19.629Z,1.70
2018-12-26T11:07:07.589Z,1.70
2018-12-26T11:09:55.707Z,1.80
2018-12-26T11:13:05.509Z,1.80
2018-12-26T11:15:53.583Z,1.80
2018-12-26T11:18:41.757Z,1.80
2018-12-26T11:21:50.517Z,1.80
2018-12-26T11:24:19.170Z,1.80
2018-12-26T11:27:07.665Z,1.90
2018-12-26T11:30:16.419Z,1.90
2018-12-26T11:33:04.428Z,1.90
2018-12-26T11:35:54.026Z,2.00
2018-12-26T11:38:43.515Z,2.10
2018-12-26T11:41:33.482Z,2.10
2018-12-26T11:44:21.518Z,2.10
2018-12-26T11:47:09.402Z,2.10
2018-12-26T11:49:42.229Z,2.20
2018-12-26T11:52:23.092Z,2.30
2018-12-26T11:57:55.006Z,2.40
2018-12-26T12:00:36.000Z,2.50
2018-12-26T12:03:20.526Z,2.50
2018-12-26T12:06:01.088Z,2.50
2018-12-26T12:11:23.365Z,2.60
2018-12-26T12:16:46.434Z,2.80
2018-12-26T12:19:15.825Z,3.30
2018-12-26T12:22:23.089Z,3.40
2018-12-26T12:25:10.977Z,3.40
2018-12-26T12:27:58.941Z,3.50
2018-12-26T12:31:06.278Z,3.40
2018-12-26T12:33:55.808Z,3.40
2018-12-26T12:36:45.750Z,3.40
2018-12-26T12:39:54.817Z,3.50
2018-12-26T12:42:42.782Z,3.60
2018-12-26T12:45:30.721Z,3.60
2018-12-26T12:48:18.682Z,3.70
2018-12-26T12:51:09.460Z,3.90
2018-12-26T12:54:18.106Z,4.10
2018-12-26T12:57:06.050Z,4.10
2018-12-26T12:59:55.442Z,4.10
2018-12-26T13:02:43.343Z,4.00
2018-12-26T13:05:31.246Z,4.10
2018-12-26T13:08:19.118Z,4.20
2018-12-26T13:11:07.062Z,4.20
2018-12-26T13:14:14.266Z,4.20
2018-12-26T13:17:03.684Z,4.20
2018-12-26T13:19:51.865Z,4.20
2018-12-26T13:22:40.039Z,4.20
2018-12-26T13:25:29.954Z,4.20
2018-12-26T13:28:19.383Z,4.20
2018-12-26T13:31:26.810Z,4.20
2018-12-26T13:34:14.738Z,4.20
2018-12-26T13:37:02.698Z,4.20
2018-12-26T13:40:09.916Z,4.20
2018-12-26T13:42:59.755Z,4.20
2018-12-26T13:45:49.304Z,4.30
2018-12-26T13:48:34.524Z,4.20
2018-12-26T13:51:15.004Z,4.50
2018-12-26T13:56:49.887Z,4.30
2018-12-26T13:59:30.330Z,4.40
2018-12-26T14:04:53.546Z,4.30
2018-12-26T14:07:37.022Z,4.40
2018-12-26T14:10:17.426Z,4.40
2018-12-26T14:13:50.474Z,4.50
2018-12-26T14:16:33.776Z,4.40
2018-12-26T14:19:14.576Z,4.40
2018-12-26T14:21:43.503Z,4.40
2018-12-26T14:24:15.606Z,4.50
2018-12-26T14:26:49.965Z,4.60
2018-12-26T14:29:14.183Z,4.50
2018-12-26T14:31:44.549Z,4.40
2018-12-26T14:34:17.486Z,4.30
2018-12-26T14:36:51.742Z,4.30
2018-12-26T14:39:26.088Z,4.40
2018-12-26T14:41:58.182Z,4.50
2018-12-26T14:44:29.018Z,4.40
2018-12-26T14:46:56.802Z,4.30
2018-12-26T14:49:26.704Z,4.30
2018-12-26T14:51:59.214Z,4.20
2018-12-26T14:54:34.940Z,4.30
2018-12-26T14:57:07.172Z,4.20
2018-12-26T14:59:40.825Z,4.30
2018-12-26T15:02:11.489Z,4.20
2018-12-26T15:04:39.561Z,4.20
2018-12-26T15:07:09.890Z,4.10
2018-12-26T15:09:42.513Z,4.00
2018-12-26T15:12:16.011Z,4.10
2018-12-26T15:14:45.721Z,4.00
2018-12-26T15:17:14.165Z,4.00
2018-12-26T15:19:44.647Z,4.00
2018-12-26T15:22:17.057Z,3.90
2018-12-26T15:24:51.000Z,3.80
2018-12-26T15:27:20.288Z,3.70
2018-12-26T15:29:48.811Z,3.70
2018-12-26T15:32:19.728Z,3.70
2018-12-26T15:34:51.423Z,3.70
2018-12-26T15:37:19.941Z,3.70
2018-12-26T15:39:50.527Z,3.80
2018-12-26T15:42:21.679Z,3.70
2018-12-26T15:44:53.965Z,3.60
2018-12-26T15:47:26.612Z,3.60
2018-12-26T15:49:57.121Z,3.50
2018-12-26T15:52:25.383Z,3.40
2018-12-26T15:54:54.511Z,3.30
2018-12-26T15:57:29.631Z,3.30
2018-12-26T16:00:02.626Z,3.20
2018-12-26T16:02:35.622Z,3.20
2018-12-26T16:05:08.433Z,3.50
2018-12-26T16:07:37.061Z,3.40
2018-12-26T16:10:07.015Z,3.30
2018-12-26T16:12:37.854Z,3.20
2018-12-26T16:15:10.522Z,3.00
2018-12-26T16:17:43.957Z,3.00
2018-12-26T16:20:13.685Z,2.90
2018-12-26T16:22:42.276Z,2.90
2018-12-26T16:25:12.479Z,2.80
2018-12-26T16:27:45.488Z,2.80
2018-12-26T16:30:18.601Z,2.80
2018-12-26T16:32:48.603Z,2.60
2018-12-26T16:35:17.077Z,2.60
2018-12-26T16:37:47.299Z,2.60
2018-12-26T16:40:20.320Z,2.50
2018-12-26T16:42:53.207Z,2.40
2018-12-26T16:45:21.811Z,3.90
2018-12-26T16:47:50.360Z,4.00
2018-12-26T16:50:26.953Z,3.50
2018-12-26T16:52:56.467Z,3.10
2018-12-26T16:55:28.509Z,2.80
2018-12-26T16:58:04.038Z,2.70
2018-12-26T17:00:36.420Z,2.70
2018-12-26T17:03:13.563Z,5.10
2018-12-26T17:05:35.077Z,5.40
2018-12-26T17:08:05.328Z,4.70
2018-12-26T17:10:38.227Z,3.90
2018-12-26T17:13:13.547Z,3.40
2018-12-26T17:15:46.620Z,3.10
2018-12-26T17:18:19.112Z,2.80
2018-12-26T17:20:48.902Z,2.70
2018-12-26T17:23:17.349Z,2.60
2018-12-26T17:25:47.529Z,2.50
2018-12-26T17:28:20.217Z,2.40
2018-12-26T17:30:53.633Z,2.40
2018-12-26T17:33:23.599Z,2.40
2018-12-26T17:35:52.001Z,2.40
2018-12-26T17:38:21.531Z,2.40
2018-12-26T17:40:54.550Z,2.30
2018-12-26T17:43:25.508Z,2.40
2018-12-26T17:45:53.253Z,2.40
2018-12-26T17:48:23.101Z,2.40
2018-12-26T17:50:55.369Z,2.40
2018-12-26T17:53:33.036Z,2.50
2018-12-26T17:56:19.687Z,2.50
2018-12-26T17:59:05.891Z,2.40
2018-12-26T18:01:50.191Z,2.40
2018-12-26T18:04:18.771Z,2.40
2018-12-26T18:06:52.437Z,2.30
2018-12-26T18:09:27.364Z,2.20
2018-12-26T18:12:11.259Z,2.20
2018-12-26T18:14:32.391Z,2.10
2018-12-26T18:17:02.057Z,2.10
2018-12-26T18:19:30.447Z,2.10
2018-12-26T18:22:01.116Z,2.10
2018-12-26T18:24:34.446Z,2.20
2018-12-26T18:27:07.073Z,2.10
2018-12-26T18:29:37.555Z,2.00
2018-12-26T18:32:05.822Z,2.00
2018-12-26T18:34:37.007Z,2.00
2018-12-26T18:37:11.217Z,1.90
2018-12-26T18:39:43.754Z,2.00
2018-12-26T18:42:14.714Z,2.00
2018-12-26T18:44:43.927Z,2.00
2018-12-26T18:47:12.512Z,1.90
2018-12-26T18:49:44.753Z,1.80
2018-12-26T18:52:16.723Z,1.90
2018-12-26T18:54:47.003Z,1.90
2018-12-26T18:57:15.631Z,1.90
2018-12-26T18:59:46.827Z,1.80
2018-12-26T19:02:19.077Z,1.70
2018-12-26T19:04:51.932Z,1.70
2018-12-26T19:07:22.094Z,1.80
2018-12-26T19:09:50.707Z,1.70
2018-12-26T19:12:20.511Z,1.70
2018-12-26T19:14:53.244Z,1.70
2018-12-26T19:17:23.601Z,1.70
2018-12-26T19:19:52.708Z,1.70
2018-12-26T19:22:21.530Z,1.70
2018-12-26T19:24:54.254Z,1.70
2018-12-26T19:27:27.163Z,1.70
2018-12-26T19:29:59.476Z,1.70
2018-12-26T19:32:25.866Z,1.70
2018-12-26T19:34:55.750Z,1.60
2018-12-26T19:37:28.145Z,1.60
2018-12-26T19:39:57.300Z,1.60
2018-12-26T19:42:26.384Z,1.60
2018-12-26T19:44:55.353Z,1.60
2018-12-26T19:47:28.922Z,1.60
2018-12-26T19:50:04.862Z,1.40
2018-12-26T19:52:30.572Z,1.50
2018-12-26T19:54:59.121Z,1.60
2018-12-26T19:57:31.672Z,1.50
2018-12-26T20:00:04.566Z,1.50
2018-12-26T20:02:37.819Z,1.50
2018-12-26T20:05:07.747Z,1.40
2018-12-26T20:07:36.227Z,1.40
2018-12-26T20:10:08.003Z,1.40
2018-12-26T20:12:40.188Z,1.40
2018-12-26T20:15:13.963Z,1.40
2018-12-26T20:17:46.716Z,1.30
2018-12-26T20:20:17.398Z,1.40
2018-12-26T20:22:46.691Z,1.40
2018-12-26T20:25:15.464Z,1.40
2018-12-26T20:27:47.826Z,1.40
2018-12-26T20:30:21.982Z,1.30
2018-12-26T20:32:55.388Z,1.20
2018-12-26T20:35:27.198Z,1.30
2018-12-26T20:37:54.210Z,1.60
2018-12-26T20:40:24.390Z,1.50
2018-12-26T20:42:56.859Z,1.50
2018-12-26T20:45:28.654Z,1.40
2018-12-26T20:47:58.138Z,1.30
2018-12-26T20:50:29.858Z,1.20
2018-12-26T20:52:59.128Z,1.20
2018-12-26T20:55:31.594Z,1.40
2018-12-26T20:58:04.918Z,1.40
2018-12-26T21:00:33.354Z,1.30
2018-12-26T21:03:03.272Z,1.40
2018-12-26T21:05:34.031Z,1.40
2018-12-26T21:08:06.562Z,1.40
2018-12-26T21:10:39.456Z,1.50
2018-12-26T21:13:07.941Z,1.60
2018-12-26T21:15:36.714Z,1.60
2018-12-26T21:18:10.309Z,1.50
2018-12-26T21:20:42.143Z,1.60
2018-12-26T21:23:14.827Z,1.60
2018-12-26T21:25:46.670Z,1.60
2018-12-26T21:28:13.516Z,1.60
2018-12-26T21:30:44.799Z,1.60
2018-12-26T21:33:17.856Z,1.60
2018-12-26T21:35:50.031Z,1.60
2018-12-26T21:38:23.738Z,1.60
2018-12-26T21:40:53.571Z,1.60
2018-12-26T21:43:23.091Z,1.60
2018-12-26T21:45:52.628Z,1.50
2018-12-26T21:48:25.703Z,1.50
2018-12-26T21:50:58.492Z,1.50
2018-12-26T21:53:28.218Z,1.50
2018-12-26T21:55:56.701Z,1.50
2018-12-26T21:58:26.984Z,1.50
2018-12-26T22:01:01.134Z,1.60
2018-12-26T22:03:33.587Z,1.60
2018-12-26T22:06:07.112Z,1.60
2018-12-26T22:08:37.328Z,1.70
2018-12-26T22:11:05.802Z,1.70
2018-12-26T22:13:35.896Z,1.60
2018-12-26T22:16:10.006Z,1.70
2018-12-26T22:18:43.586Z,1.70
2018-12-26T22:21:15.827Z,1.70
2018-12-26T22:23:45.596Z,1.70
2018-12-26T22:26:14.475Z,1.70
2018-12-26T22:28:43.982Z,1.80
2018-12-26T22:31:16.757Z,1.70
2018-12-26T22:33:49.898Z,1.80
2018-12-26T22:36:18.324Z,1.80
2018-12-26T22:38:46.780Z,1.80
2018-12-26T22:41:18.972Z,1.70
2018-12-26T22:43:51.574Z,1.70
2018-12-26T22:46:21.849Z,1.70
2018-12-26T22:48:50.329Z,1.60
2018-12-26T22:51:20.363Z,1.70
2018-12-26T22:53:52.799Z,1.70
2018-12-26T22:56:26.263Z,1.70
2018-12-26T22:58:56.055Z,1.80
2018-12-26T23:01:24.615Z,2.50
2018-12-26T23:03:55.927Z,2.20
2018-12-26T23:06:29.085Z,2.10
2018-12-26T23:09:01.789Z,2.00
2018-12-26T23:11:37.853Z,2.00
2018-12-26T23:14:10.684Z,1.90
2018-12-26T23:16:42.932Z,2.00
2018-12-26T23:19:17.671Z,1.90
2018-12-26T23:21:50.796Z,2.00
2018-12-26T23:24:19.248Z,2.00
2018-12-26T23:26:49.628Z,1.80
2018-12-26T23:29:19.832Z,1.80
2018-12-26T23:31:52.161Z,1.80
2018-12-26T23:34:25.252Z,1.80
2018-12-26T23:36:53.686Z,1.80
2018-12-26T23:39:22.140Z,1.80
2018-12-26T23:41:53.878Z,1.80
2018-12-26T23:44:27.040Z,1.90
2018-12-26T23:47:04.100Z,2.00
2018-12-26T23:49:36.967Z,2.10
2018-12-26T23:52:09.582Z,2.10
2018-12-26T23:54:44.640Z,1.90
2018-12-26T23:57:18.701Z,1.80
2018-12-26T23:59:52.793Z,1.90
